createdAt,value
2023-08-06T00:00:49.325Z,15.70
2023-08-06T00:03:37.240Z,15.71
2023-08-06T00:06:07.282Z,15.73
2023-08-06T00:08:34.735Z,15.71
2023-08-06T00:11:01.643Z,15.73
2023-08-06T00:13:31.204Z,15.70
2023-08-06T00:16:11.031Z,15.66
2023-08-06T00:18:43.853Z,15.67
2023-08-06T00:21:10.899Z,15.67
2023-08-06T00:23:38.146Z,15.65
2023-08-06T00:26:05.046Z,15.68
2023-08-06T00:28:32.269Z,15.67
2023-08-06T00:30:59.335Z,15.66
2023-08-06T00:33:26.876Z,15.63
2023-08-06T00:35:53.844Z,15.64
2023-08-06T00:38:21.096Z,15.63
2023-08-06T00:40:48.618Z,15.62
2023-08-06T00:43:15.977Z,15.59
2023-08-06T00:45:43.325Z,15.59
2023-08-06T00:48:10.740Z,15.57
2023-08-06T00:50:38.456Z,15.59
2023-08-06T00:53:06.315Z,15.57
2023-08-06T00:55:34.160Z,15.61
2023-08-06T00:58:04.682Z,15.61
2023-08-06T01:00:31.872Z,15.60
2023-08-06T01:03:01.537Z,15.59
2023-08-06T01:05:28.767Z,15.60
2023-08-06T01:07:58.775Z,15.57
2023-08-06T01:10:46.624Z,15.55
2023-08-06T01:13:32.574Z,15.53
2023-08-06T01:16:03.037Z,15.53
2023-08-06T01:18:32.270Z,15.53
2023-08-06T01:21:00.593Z,15.50
2023-08-06T01:23:27.835Z,15.49
2023-08-06T01:26:04.816Z,15.49
2023-08-06T01:28:43.990Z,15.48
2023-08-06T01:31:15.075Z,15.45
2023-08-06T01:33:48.408Z,15.45
2023-08-06T01:36:17.982Z,15.40
2023-08-06T01:38:45.412Z,15.38
2023-08-06T01:41:12.286Z,15.38
2023-08-06T01:43:42.520Z,15.38
2023-08-06T01:46:09.537Z,15.38
2023-08-06T01:48:37.048Z,15.36
2023-08-06T01:51:07.356Z,15.34
2023-08-06T01:53:37.291Z,15.37
2023-08-06T01:56:04.435Z,15.35
2023-08-06T01:58:34.402Z,15.30
2023-08-06T02:01:03.936Z,15.33
2023-08-06T02:03:31.191Z,15.27
2023-08-06T02:05:58.132Z,15.24
2023-08-06T02:08:30.328Z,15.24
2023-08-06T02:11:00.440Z,15.18
2023-08-06T02:13:27.794Z,15.15
2023-08-06T02:15:54.681Z,15.14
2023-08-06T02:18:21.941Z,15.13
2023-08-06T02:20:59.078Z,15.11
2023-08-06T02:23:28.847Z,15.11
2023-08-06T02:26:14.014Z,15.06
2023-08-06T02:28:41.304Z,15.08
2023-08-06T02:31:08.597Z,15.06
2023-08-06T02:33:38.495Z,15.05
2023-08-06T02:36:05.747Z,15.04
2023-08-06T02:38:33.478Z,15.04
2023-08-06T02:41:00.427Z,15.02
2023-08-06T02:43:29.733Z,15.04
2023-08-06T02:46:00.399Z,15.03
2023-08-06T02:48:27.928Z,15.02
2023-08-06T02:50:57.986Z,15.00
2023-08-06T02:53:29.150Z,15.02
2023-08-06T02:55:56.783Z,15.00
2023-08-06T02:58:31.290Z,15.02
2023-08-06T03:01:11.433Z,15.01
2023-08-06T03:03:46.153Z,15.05
2023-08-06T03:06:19.915Z,15.05
2023-08-06T03:08:50.928Z,15.14
2023-08-06T03:11:17.870Z,15.11
2023-08-06T03:13:51.903Z,15.11
2023-08-06T03:16:19.014Z,15.10
2023-08-06T03:18:46.432Z,15.11
2023-08-06T03:21:13.569Z,15.11
2023-08-06T03:23:40.858Z,15.12
2023-08-06T03:26:08.112Z,15.14
2023-08-06T03:28:35.367Z,15.15
2023-08-06T03:31:03.473Z,15.15
2023-08-06T03:33:37.608Z,15.17
2023-08-06T03:36:08.573Z,15.22
2023-08-06T03:38:36.796Z,15.23
2023-08-06T03:41:06.717Z,15.23
2023-08-06T03:43:34.014Z,15.26
2023-08-06T03:46:02.760Z,15.26
2023-08-06T03:48:29.982Z,15.26
2023-08-06T03:50:58.158Z,15.30
2023-08-06T03:53:26.809Z,15.32
2023-08-06T03:55:53.795Z,15.31
2023-08-06T03:58:23.372Z,15.32
2023-08-06T04:00:58.339Z,15.39
2023-08-06T04:03:25.820Z,15.43
2023-08-06T04:05:52.896Z,15.43
2023-08-06T04:08:21.040Z,15.45
2023-08-06T04:10:51.124Z,15.49
2023-08-06T04:13:18.471Z,15.54
2023-08-06T04:15:45.470Z,15.55
2023-08-06T04:18:12.732Z,15.51
2023-08-06T04:20:50.527Z,15.56
2023-08-06T04:23:17.790Z,15.55
2023-08-06T04:25:44.789Z,15.58
2023-08-06T04:28:11.999Z,15.58
2023-08-06T04:30:41.868Z,15.57
2023-08-06T04:33:09.785Z,15.60
2023-08-06T04:35:36.684Z,15.64
2023-08-06T04:38:03.947Z,15.64
2023-08-06T04:40:30.885Z,15.65
2023-08-06T04:42:58.100Z,15.68
2023-08-06T04:45:25.784Z,15.66
2023-08-06T04:47:53.091Z,15.68
2023-08-06T04:50:21.054Z,15.66
2023-08-06T04:52:48.209Z,15.70
2023-08-06T04:55:15.117Z,15.69
2023-08-06T04:57:42.307Z,15.71
2023-08-06T05:00:09.361Z,15.76
2023-08-06T05:02:39.214Z,15.73
2023-08-06T05:05:06.531Z,15.75
2023-08-06T05:07:33.868Z,15.78
2023-08-06T05:10:00.778Z,15.82
2023-08-06T05:12:28.071Z,15.84
2023-08-06T05:14:55.123Z,15.86
2023-08-06T05:17:24.040Z,15.92
2023-08-06T05:19:53.511Z,15.89
2023-08-06T05:22:20.889Z,15.86
2023-08-06T05:24:47.992Z,15.87
2023-08-06T05:27:19.816Z,15.89
2023-08-06T05:29:46.906Z,15.94
2023-08-06T05:32:14.229Z,15.90
2023-08-06T05:34:43.733Z,15.93
2023-08-06T05:37:11.036Z,15.94
2023-08-06T05:39:40.516Z,15.95
2023-08-06T05:42:10.171Z,15.96
2023-08-06T05:44:37.162Z,16.01
2023-08-06T05:47:06.876Z,16.05
2023-08-06T05:49:33.773Z,16.05
2023-08-06T05:52:01.175Z,16.07
2023-08-06T05:54:30.296Z,16.07
2023-08-06T05:56:57.564Z,16.09
2023-08-06T05:59:24.468Z,16.12
2023-08-06T06:01:54.241Z,16.15
2023-08-06T06:04:21.798Z,16.22
2023-08-06T06:06:48.995Z,16.22
2023-08-06T06:09:16.097Z,16.23
2023-08-06T06:11:46.143Z,16.21
2023-08-06T06:14:13.168Z,16.28
2023-08-06T06:16:40.319Z,16.23
2023-08-06T06:19:07.388Z,16.21
2023-08-06T06:21:34.860Z,16.17
2023-08-06T06:24:01.938Z,16.22
2023-08-06T06:26:29.585Z,16.18
2023-08-06T06:28:56.398Z,16.26
2023-08-06T06:31:26.273Z,16.28
2023-08-06T06:33:55.747Z,16.33
2023-08-06T06:36:22.897Z,16.32
2023-08-06T06:38:50.467Z,16.42
2023-08-06T06:41:20.069Z,16.45
2023-08-06T06:43:49.516Z,16.51
2023-08-06T06:46:16.756Z,16.60
2023-08-06T06:48:43.835Z,16.69
2023-08-06T06:51:11.282Z,16.83
2023-08-06T06:53:38.154Z,16.87
2023-08-06T06:56:06.283Z,16.96
2023-08-06T06:58:33.784Z,17.05
2023-08-06T07:01:01.197Z,17.08
2023-08-06T07:03:30.736Z,17.20
2023-08-06T07:06:00.811Z,17.28
2023-08-06T07:08:27.890Z,17.30
2023-08-06T07:11:03.033Z,17.38
2023-08-06T07:13:30.083Z,17.40
2023-08-06T07:15:59.832Z,17.44
2023-08-06T07:18:29.097Z,17.40
2023-08-06T07:20:57.030Z,17.51
2023-08-06T07:23:25.221Z,17.50
2023-08-06T07:25:52.674Z,17.48
2023-08-06T07:28:19.682Z,17.41
2023-08-06T07:30:47.137Z,17.36
2023-08-06T07:33:14.240Z,17.40
2023-08-06T07:35:41.590Z,17.45
2023-08-06T07:38:08.533Z,17.46
2023-08-06T07:40:36.780Z,17.48
2023-08-06T07:43:03.732Z,17.58
2023-08-06T07:45:34.190Z,17.58
2023-08-06T07:48:01.174Z,17.77
2023-08-06T07:50:28.418Z,17.80
2023-08-06T07:52:55.254Z,17.90
2023-08-06T07:55:22.475Z,18.07
2023-08-06T07:57:51.924Z,18.11
2023-08-06T08:00:19.190Z,18.09
2023-08-06T08:02:47.740Z,18.19
2023-08-06T08:05:15.261Z,18.03
2023-08-06T08:07:45.542Z,17.91
2023-08-06T08:10:13.136Z,17.93
2023-08-06T08:12:40.102Z,17.89
2023-08-06T08:15:07.619Z,17.78
2023-08-06T08:17:37.291Z,17.71
2023-08-06T08:20:07.341Z,17.61
2023-08-06T08:22:34.341Z,17.47
2023-08-06T08:25:05.442Z,17.50
2023-08-06T08:27:33.471Z,17.47
2023-08-06T08:30:00.673Z,17.56
2023-08-06T08:32:27.951Z,17.61
2023-08-06T08:34:55.217Z,17.59
2023-08-06T08:37:22.166Z,17.65
2023-08-06T08:39:49.434Z,17.61
2023-08-06T08:42:16.822Z,17.56
2023-08-06T08:44:44.383Z,17.66
2023-08-06T08:47:11.936Z,17.57
2023-08-06T08:49:39.902Z,17.54
2023-08-06T08:52:07.787Z,17.67
2023-08-06T08:54:36.158Z,17.72
2023-08-06T08:57:03.408Z,17.70
2023-08-06T08:59:31.007Z,17.93
2023-08-06T09:01:58.201Z,18.22
2023-08-06T09:04:27.753Z,18.33
2023-08-06T09:06:55.904Z,18.43
2023-08-06T09:09:43.789Z,18.42
2023-08-06T09:12:15.094Z,18.31
2023-08-06T09:14:43.059Z,18.22
2023-08-06T09:17:12.093Z,17.97
2023-08-06T09:19:45.346Z,17.87
2023-08-06T09:22:14.606Z,17.80
2023-08-06T09:24:45.178Z,17.80
2023-08-06T09:27:14.000Z,17.83
2023-08-06T09:29:45.124Z,17.79
2023-08-06T09:32:12.824Z,17.82
2023-08-06T09:34:41.431Z,17.86
2023-08-06T09:37:11.834Z,17.92
2023-08-06T09:39:42.781Z,17.93
2023-08-06T09:42:09.764Z,17.92
2023-08-06T09:44:37.126Z,17.92
2023-08-06T09:47:04.826Z,17.86
2023-08-06T09:49:32.196Z,17.84
2023-08-06T09:52:01.190Z,17.86
2023-08-06T09:54:29.957Z,17.78
2023-08-06T09:56:57.692Z,17.71
2023-08-06T09:59:25.631Z,17.74
2023-08-06T10:01:53.251Z,17.71
2023-08-06T10:04:24.610Z,17.76
2023-08-06T10:06:53.758Z,17.76
2023-08-06T10:09:21.670Z,17.73
2023-08-06T10:11:51.567Z,17.68
2023-08-06T10:14:28.010Z,17.65
2023-08-06T10:16:57.418Z,17.61
2023-08-06T10:19:26.067Z,17.66
2023-08-06T10:22:14.006Z,17.58
2023-08-06T10:25:05.681Z,17.60
2023-08-06T10:27:54.132Z,17.61
2023-08-06T10:30:32.760Z,17.60
2023-08-06T10:33:04.066Z,17.68
2023-08-06T10:35:38.624Z,17.75
2023-08-06T10:38:12.936Z,17.77
2023-08-06T10:40:41.332Z,17.84
2023-08-06T10:43:11.655Z,17.92
2023-08-06T10:45:39.192Z,17.94
2023-08-06T10:48:06.239Z,18.05
2023-08-06T10:50:33.997Z,18.14
2023-08-06T10:53:06.125Z,18.19
2023-08-06T10:55:33.773Z,18.27
2023-08-06T10:58:00.763Z,18.19
2023-08-06T11:00:28.083Z,18.18
2023-08-06T11:02:56.354Z,18.16
2023-08-06T11:05:26.978Z,18.15
2023-08-06T11:07:54.018Z,18.12
2023-08-06T11:10:23.574Z,18.08
2023-08-06T11:12:52.982Z,17.92
2023-08-06T11:15:21.870Z,17.87
2023-08-06T11:17:48.900Z,17.94
2023-08-06T11:20:18.008Z,17.99
2023-08-06T11:22:45.394Z,18.10
2023-08-06T11:25:12.656Z,18.24
2023-08-06T11:27:39.794Z,18.40
2023-08-06T11:30:07.260Z,18.48
2023-08-06T11:32:36.359Z,18.59
2023-08-06T11:35:10.700Z,18.76
2023-08-06T11:37:40.565Z,18.82
2023-08-06T11:40:09.818Z,18.94
2023-08-06T11:42:39.211Z,18.96
2023-08-06T11:45:06.639Z,19.01
2023-08-06T11:47:33.852Z,18.90
2023-08-06T11:50:01.206Z,18.91
2023-08-06T11:52:31.616Z,18.81
2023-08-06T11:55:03.997Z,18.90
2023-08-06T11:57:34.191Z,18.62
2023-08-06T12:00:12.149Z,18.47
2023-08-06T12:02:46.263Z,18.42
2023-08-06T12:05:17.423Z,18.45
2023-08-06T12:07:51.495Z,18.44
2023-08-06T12:10:22.924Z,18.41
2023-08-06T12:12:51.195Z,18.41
2023-08-06T12:15:18.840Z,18.54
2023-08-06T12:17:45.912Z,18.54
2023-08-06T12:20:13.410Z,18.41
2023-08-06T12:22:42.685Z,18.32
2023-08-06T12:25:15.296Z,18.37
2023-08-06T12:27:46.034Z,18.24
2023-08-06T12:30:15.872Z,18.15
2023-08-06T12:32:42.941Z,18.17
2023-08-06T12:35:10.376Z,18.26
2023-08-06T12:37:39.804Z,18.21
2023-08-06T12:40:24.832Z,18.04
2023-08-06T12:42:54.536Z,18.23
2023-08-06T12:45:22.789Z,18.17
2023-08-06T12:47:50.990Z,18.15
2023-08-06T12:50:18.887Z,18.12
2023-08-06T12:52:46.333Z,18.18
2023-08-06T12:55:13.575Z,18.17
2023-08-06T12:57:56.758Z,18.19
2023-08-06T13:00:26.197Z,18.24
2023-08-06T13:02:53.709Z,18.31
2023-08-06T13:05:21.600Z,18.22
2023-08-06T13:07:48.993Z,18.24
2023-08-06T13:10:19.386Z,18.27
2023-08-06T13:12:48.668Z,18.23
2023-08-06T13:15:22.169Z,18.32
2023-08-06T13:17:49.486Z,18.34
2023-08-06T13:20:19.424Z,18.47
2023-08-06T13:22:51.421Z,18.53
2023-08-06T13:25:19.821Z,18.67
2023-08-06T13:27:47.371Z,18.76
2023-08-06T13:30:14.985Z,18.85
2023-08-06T13:32:42.217Z,19.03
2023-08-06T13:35:11.948Z,19.18
2023-08-06T13:37:39.133Z,19.16
2023-08-06T13:40:07.975Z,19.29
2023-08-06T13:42:35.195Z,19.48
2023-08-06T13:45:05.156Z,19.53
2023-08-06T13:47:32.607Z,19.54
2023-08-06T13:52:45.255Z,19.73
2023-08-06T13:55:12.560Z,19.89
2023-08-06T13:57:42.623Z,19.94
2023-08-06T14:00:10.300Z,20.01
2023-08-06T14:02:45.147Z,20.13
2023-08-06T14:05:13.183Z,20.17
2023-08-06T14:07:40.611Z,20.10
2023-08-06T14:10:10.371Z,20.24
2023-08-06T14:12:37.520Z,20.32
2023-08-06T14:15:05.237Z,20.51
2023-08-06T14:17:32.554Z,20.53
2023-08-06T14:20:02.007Z,20.51
2023-08-06T14:22:32.395Z,20.61
2023-08-06T14:25:00.161Z,20.66
2023-08-06T14:27:27.590Z,20.72
2023-08-06T14:29:55.111Z,20.90
2023-08-06T14:32:24.716Z,20.78
2023-08-06T14:34:53.277Z,20.70
2023-08-06T14:37:22.376Z,20.68
2023-08-06T14:39:52.009Z,20.53
2023-08-06T14:42:19.720Z,20.38
2023-08-06T14:44:47.542Z,19.87
2023-08-06T14:47:14.858Z,19.73
2023-08-06T14:49:45.929Z,19.63
2023-08-06T14:52:15.638Z,19.44
2023-08-06T14:54:43.959Z,19.03
2023-08-06T14:57:11.892Z,18.62
2023-08-06T14:59:41.912Z,18.38
2023-08-06T15:02:10.544Z,18.13
2023-08-06T15:04:38.192Z,17.83
2023-08-06T15:07:06.185Z,17.64
2023-08-06T15:09:49.902Z,17.72
2023-08-06T15:12:22.918Z,17.71
2023-08-06T15:14:50.453Z,17.62
2023-08-06T15:17:18.004Z,17.62
2023-08-06T15:19:45.371Z,17.57
2023-08-06T15:22:13.765Z,17.55
2023-08-06T15:24:45.115Z,17.70
2023-08-06T15:27:13.412Z,17.79
2023-08-06T15:29:41.694Z,17.95
2023-08-06T15:32:11.727Z,18.09
2023-08-06T15:34:39.127Z,18.16
2023-08-06T15:37:06.514Z,18.25
2023-08-06T15:39:34.349Z,18.41
2023-08-06T15:42:01.957Z,18.43
2023-08-06T15:44:29.711Z,18.52
2023-08-06T15:46:57.380Z,18.64
2023-08-06T15:49:25.430Z,18.64
2023-08-06T15:51:54.131Z,18.52
2023-08-06T15:54:24.518Z,18.50
2023-08-06T15:56:51.954Z,18.54
2023-08-06T15:59:29.976Z,18.46
2023-08-06T16:02:00.923Z,18.47
2023-08-06T16:04:31.752Z,18.47
2023-08-06T16:07:02.276Z,18.30
2023-08-06T16:09:29.830Z,18.31
2023-08-06T16:11:59.437Z,18.39
2023-08-06T16:14:27.326Z,18.37
2023-08-06T16:16:55.022Z,18.34
2023-08-06T16:19:23.033Z,18.35
2023-08-06T16:21:50.427Z,18.39
2023-08-06T16:24:18.304Z,18.41
2023-08-06T16:26:45.662Z,18.38
2023-08-06T16:29:14.369Z,18.34
2023-08-06T16:31:41.934Z,18.41
2023-08-06T16:34:09.376Z,18.46
2023-08-06T16:36:36.851Z,18.57
2023-08-06T16:39:06.849Z,18.66
2023-08-06T16:41:33.832Z,18.64
2023-08-06T16:44:03.838Z,18.58
2023-08-06T16:46:33.614Z,18.47
2023-08-06T16:49:01.332Z,18.40
2023-08-06T16:51:28.798Z,18.36
2023-08-06T16:53:56.554Z,18.29
2023-08-06T16:56:25.986Z,18.21
2023-08-06T16:58:53.492Z,18.10
2023-08-06T17:01:20.791Z,18.02
2023-08-06T17:03:49.727Z,17.85
2023-08-06T17:06:18.027Z,17.76
2023-08-06T17:08:47.700Z,17.75
2023-08-06T17:11:18.422Z,17.70
2023-08-06T17:13:48.646Z,17.60
2023-08-06T17:16:17.957Z,17.53
2023-08-06T17:18:45.631Z,17.46
2023-08-06T17:21:13.297Z,17.39
2023-08-06T17:23:41.379Z,17.32
2023-08-06T17:26:08.710Z,17.24
2023-08-06T17:28:36.070Z,17.14
2023-08-06T17:31:03.840Z,17.05
2023-08-06T17:33:31.636Z,16.98
2023-08-06T17:35:59.368Z,16.89
2023-08-06T17:38:27.122Z,16.82
2023-08-06T17:40:55.357Z,16.75
2023-08-06T17:43:27.308Z,16.69
2023-08-06T17:45:54.990Z,16.72
2023-08-06T17:48:22.885Z,16.77
2023-08-06T17:50:50.580Z,16.78
2023-08-06T17:53:20.600Z,16.78
2023-08-06T17:55:48.413Z,16.76
2023-08-06T17:58:16.039Z,16.69
2023-08-06T18:00:45.704Z,16.71
2023-08-06T18:03:20.523Z,16.69
2023-08-06T18:05:48.040Z,16.65
2023-08-06T18:08:15.747Z,16.61
2023-08-06T18:10:42.924Z,16.59
2023-08-06T18:13:10.774Z,16.51
2023-08-06T18:15:37.901Z,16.49
2023-08-06T18:18:05.942Z,16.44
2023-08-06T18:20:33.539Z,16.44
2023-08-06T18:23:01.340Z,16.41
2023-08-06T18:25:28.674Z,16.42
2023-08-06T18:27:55.969Z,16.47
2023-08-06T18:30:23.042Z,16.47
2023-08-06T18:32:51.569Z,16.50
2023-08-06T18:35:23.033Z,16.52
2023-08-06T18:37:53.307Z,16.54
2023-08-06T18:40:20.540Z,16.54
2023-08-06T18:42:48.110Z,16.54
2023-08-06T18:45:15.685Z,16.53
2023-08-06T18:47:43.546Z,16.49
2023-08-06T18:50:11.487Z,16.46
2023-08-06T18:52:45.575Z,16.47
2023-08-06T18:55:13.377Z,16.48
2023-08-06T18:57:44.757Z,16.51
2023-08-06T19:00:14.467Z,16.50
2023-08-06T19:02:42.156Z,16.44
2023-08-06T19:05:11.761Z,16.50
2023-08-06T19:07:42.392Z,16.51
2023-08-06T19:10:13.188Z,16.48
2023-08-06T19:12:40.756Z,16.48
2023-08-06T19:15:08.382Z,16.47
2023-08-06T19:17:36.035Z,16.44
2023-08-06T19:20:03.556Z,16.38
2023-08-06T19:22:31.111Z,16.36
2023-08-06T19:24:58.326Z,16.28
2023-08-06T19:27:26.212Z,16.22
2023-08-06T19:29:54.279Z,16.13
2023-08-06T19:32:21.917Z,16.09
2023-08-06T19:34:49.510Z,15.99
2023-08-06T19:37:20.038Z,15.94
2023-08-06T19:39:47.001Z,15.89
2023-08-06T19:42:14.951Z,15.85
2023-08-06T19:44:42.212Z,15.76
2023-08-06T19:47:09.944Z,15.69
2023-08-06T19:49:37.528Z,15.70
2023-08-06T19:52:05.309Z,15.73
2023-08-06T19:54:35.319Z,15.66
2023-08-06T19:57:03.228Z,15.67
2023-08-06T19:59:30.385Z,15.68
2023-08-06T20:01:58.113Z,15.64
2023-08-06T20:04:26.132Z,15.67
2023-08-06T20:06:55.023Z,15.69
2023-08-06T20:09:24.620Z,15.68
2023-08-06T20:11:52.498Z,15.66
2023-08-06T20:14:20.237Z,15.59
2023-08-06T20:16:48.130Z,15.57
2023-08-06T20:19:15.369Z,15.63
2023-08-06T20:21:42.962Z,15.62
2023-08-06T20:24:09.922Z,15.62
2023-08-06T20:26:37.442Z,15.60
2023-08-06T20:29:07.005Z,15.63
2023-08-06T20:31:34.469Z,15.65
2023-08-06T20:34:01.988Z,15.65
2023-08-06T20:36:29.631Z,15.68
2023-08-06T20:38:59.875Z,15.65
2023-08-06T20:41:27.569Z,15.64
2023-08-06T20:43:54.994Z,15.62
2023-08-06T20:46:22.572Z,15.63
2023-08-06T20:48:50.592Z,15.67
2023-08-06T20:51:18.003Z,15.62
2023-08-06T20:53:45.418Z,15.57
2023-08-06T20:56:13.990Z,15.53
2023-08-06T20:58:41.060Z,15.51
2023-08-06T21:01:08.395Z,15.45
2023-08-06T21:03:35.648Z,15.34
2023-08-06T21:06:07.014Z,15.33
2023-08-06T21:08:34.699Z,15.25
2023-08-06T21:11:02.246Z,15.19
2023-08-06T21:13:30.042Z,15.15
2023-08-06T21:16:03.840Z,15.12
2023-08-06T21:18:31.553Z,15.07
2023-08-06T21:20:59.065Z,15.02
2023-08-06T21:23:26.381Z,14.98
2023-08-06T21:25:57.125Z,14.99
2023-08-06T21:28:25.336Z,15.00
2023-08-06T21:31:02.246Z,14.98
2023-08-06T21:33:30.400Z,14.93
2023-08-06T21:35:59.655Z,14.93
2023-08-06T21:38:26.637Z,14.94
2023-08-06T21:40:55.030Z,14.92
2023-08-06T21:43:21.996Z,14.94
2023-08-06T21:45:49.238Z,14.90
2023-08-06T21:48:16.153Z,14.86
2023-08-06T21:50:43.438Z,14.85
2023-08-06T21:53:10.402Z,14.86
2023-08-06T21:55:37.567Z,14.91
2023-08-06T21:58:07.643Z,14.90
2023-08-06T22:00:35.593Z,14.91
2023-08-06T22:03:05.893Z,14.92
2023-08-06T22:05:33.439Z,14.95
2023-08-06T22:08:00.318Z,15.02
2023-08-06T22:10:27.647Z,15.08
2023-08-06T22:12:54.697Z,15.10
2023-08-06T22:15:21.883Z,15.07
2023-08-06T22:17:48.954Z,15.06
2023-08-06T22:20:17.314Z,15.03
2023-08-06T22:22:44.242Z,15.00
2023-08-06T22:25:11.623Z,14.98
2023-08-06T22:27:38.587Z,14.97
2023-08-06T22:30:17.189Z,14.91
2023-08-06T22:32:50.676Z,14.86
2023-08-06T22:35:18.521Z,14.81
2023-08-06T22:37:48.228Z,14.74
2023-08-06T22:40:16.202Z,14.72
2023-08-06T22:42:44.468Z,14.65
2023-08-06T22:45:12.197Z,14.61
2023-08-06T22:47:39.497Z,14.60
2023-08-06T22:50:09.675Z,14.64
2023-08-06T22:52:37.115Z,14.70
2023-08-06T22:55:19.010Z,14.75
2023-08-06T22:57:51.083Z,14.74
2023-08-06T23:00:18.402Z,14.74
2023-08-06T23:02:58.987Z,14.79
2023-08-06T23:05:33.305Z,14.75
2023-08-06T23:08:00.411Z,14.76
2023-08-06T23:10:28.054Z,14.74
2023-08-06T23:12:55.110Z,14.72
2023-08-06T23:15:22.340Z,14.73
2023-08-06T23:17:49.414Z,14.70
2023-08-06T23:20:16.712Z,14.74
2023-08-06T23:22:43.955Z,14.68
2023-08-06T23:25:11.238Z,14.66
2023-08-06T23:27:40.503Z,14.67
2023-08-06T23:30:11.771Z,14.65
2023-08-06T23:32:39.314Z,14.68
2023-08-06T23:35:06.707Z,14.66
2023-08-06T23:37:36.700Z,14.66
2023-08-06T23:40:04.433Z,14.70
2023-08-06T23:42:31.400Z,14.69
2023-08-06T23:44:58.780Z,14.66
2023-08-06T23:47:29.597Z,14.66
2023-08-06T23:49:57.012Z,14.68
2023-08-06T23:52:23.939Z,14.64
2023-08-06T23:54:51.591Z,14.61
2023-08-06T23:57:22.769Z,14.65
2023-08-06T23:59:50.114Z,14.60
